Time;durP1;ratioP1;P1;durP2;ratioP2;P2;SDS_P1;SDS_P2;PMS_P1;PMS_P2;Temp;Humidity;BMP_temperature;BMP_pressure;BME280_temperature;BME280_humidity;BME280_pressure;Samples;Min_cycle;Max_cycle;Signal;HPM_P1;HPM_P2
2021/01/16 00:00:28;;;;;;;8.63;7.00;;;1.30;64.90;;;;;;5054785;28;20264;-77
2021/01/16 00:02:54;;;;;;;15.17;7.87;;;1.30;64.70;;;;;;5053708;28;20432;-76
2021/01/16 00:05:22;;;;;;;11.70;7.33;;;1.30;64.60;;;;;;5056336;28;20420;-77
2021/01/16 00:08:01;;;;;;;13.30;7.10;;;1.30;64.70;;;;;;5055939;28;20409;-77
2021/01/16 00:10:27;;;;;;;11.53;6.90;;;1.30;64.70;;;;;;5053621;28;20487;-77
2021/01/16 00:12:53;;;;;;;14.77;7.50;;;1.30;64.70;;;;;;5059322;28;20454;-78
2021/01/16 00:15:19;;;;;;;13.83;7.40;;;1.30;65.00;;;;;;5041936;28;20408;-77
2021/01/16 00:17:45;;;;;;;18.77;7.13;;;1.30;65.00;;;;;;5057890;28;20403;-76
2021/01/16 00:20:11;;;;;;;14.40;8.27;;;1.30;65.20;;;;;;5056527;28;20173;-76
2021/01/16 00:22:51;;;;;;;16.33;8.47;;;1.30;65.30;;;;;;5058907;28;20579;-76
2021/01/16 00:25:17;;;;;;;15.00;8.00;;;1.30;65.40;;;;;;5058580;28;20507;-77
2021/01/16 00:27:42;;;;;;;16.23;8.00;;;1.30;65.80;;;;;;5058524;28;20429;-77
2021/01/16 00:30:10;;;;;;;17.20;8.07;;;1.30;66.30;;;;;;5058601;28;20403;-76
2021/01/16 00:32:40;;;;;;;16.87;8.33;;;1.30;66.80;;;;;;5040125;28;20186;-77
2021/01/16 00:35:07;;;;;;;18.10;7.73;;;1.30;67.40;;;;;;5039638;28;20408;-76
2021/01/16 00:37:33;;;;;;;19.70;8.63;;;1.30;67.70;;;;;;5057155;28;20423;-77
2021/01/16 00:39:59;;;;;;;15.37;7.47;;;1.30;68.20;;;;;;5039230;28;20412;-75
2021/01/16 00:42:25;;;;;;;15.30;7.97;;;1.30;68.60;;;;;;5058929;28;20712;-77
2021/01/16 00:44:50;;;;;;;14.63;8.27;;;1.30;68.90;;;;;;5041127;28;20455;-76
2021/01/16 00:47:16;;;;;;;19.13;8.50;;;1.30;69.30;;;;;;5057588;28;20165;-76
2021/01/16 00:49:41;;;;;;;17.97;8.40;;;1.30;69.40;;;;;;5049977;28;20241;-80
2021/01/16 00:52:08;;;;;;;17.10;9.30;;;1.30;69.60;;;;;;5055681;28;20185;-76
2021/01/16 00:54:33;;;;;;;15.37;9.40;;;1.30;70.00;;;;;;5033783;28;20318;-77
2021/01/16 00:57:03;;;;;;;20.70;10.17;;;1.20;70.10;;;;;;5037110;28;20420;-77
2021/01/16 00:59:29;;;;;;;19.43;12.00;;;1.20;70.10;;;;;;5040811;28;20597;-76
2021/01/16 01:01:58;;;;;;;21.90;10.17;;;1.20;70.20;;;;;;5041806;28;20765;-76
2021/01/16 01:04:24;;;;;;;24.90;12.77;;;1.20;70.50;;;;;;5042771;28;20474;-76
2021/01/16 01:06:49;;;;;;;17.13;9.43;;;1.20;70.60;;;;;;5061266;28;20396;-75
2021/01/16 01:09:15;;;;;;;21.33;9.10;;;1.20;70.70;;;;;;5062109;28;20174;-76
2021/01/16 01:11:41;;;;;;;15.00;9.13;;;1.20;71.00;;;;;;5058498;28;20188;-74
2021/01/16 01:14:06;;;;;;;18.27;9.43;;;1.10;71.00;;;;;;5056238;28;20177;-76
2021/01/16 01:16:32;;;;;;;17.83;8.90;;;1.10;71.20;;;;;;5038668;28;20295;-76
2021/01/16 01:18:59;;;;;;;20.43;10.53;;;1.10;71.50;;;;;;5057272;28;20539;-76
2021/01/16 01:21:24;;;;;;;21.87;9.67;;;1.10;71.60;;;;;;5068299;28;20185;-74
2021/01/16 01:23:50;;;;;;;17.77;8.97;;;1.10;71.80;;;;;;5046606;28;20479;-77
2021/01/16 01:26:16;;;;;;;20.33;9.80;;;1.00;71.70;;;;;;5066332;28;20162;-76
2021/01/16 01:28:41;;;;;;;17.33;9.10;;;1.00;71.80;;;;;;5063077;28;20203;-74
2021/01/16 01:31:07;;;;;;;19.13;10.47;;;1.10;71.80;;;;;;5067676;28;20170;-75
2021/01/16 01:33:33;;;;;;;22.33;10.20;;;1.00;71.80;;;;;;5049584;28;20198;-75
2021/01/16 01:35:59;;;;;;;18.97;9.30;;;1.00;71.90;;;;;;5070717;28;20508;-76
2021/01/16 01:38:24;;;;;;;18.70;10.43;;;1.00;72.70;;;;;;5065055;28;20169;-78
2021/01/16 01:40:50;;;;;;;16.03;8.20;;;1.00;71.90;;;;;;5042281;28;20181;-75
2021/01/16 01:43:16;;;;;;;18.97;10.07;;;1.10;71.70;;;;;;5037406;28;20300;-75
2021/01/16 01:45:42;;;;;;;20.50;9.43;;;1.00;71.80;;;;;;5064912;28;20416;-76
2021/01/16 01:48:10;;;;;;;18.93;9.50;;;1.00;71.30;;;;;;5057353;28;20260;-76
2021/01/16 01:50:36;;;;;;;19.77;9.47;;;1.00;71.60;;;;;;5038939;28;21004;-75
2021/01/16 01:53:04;;;;;;;20.17;8.47;;;1.00;71.50;;;;;;5048043;28;20464;-78
2021/01/16 01:55:30;;;;;;;17.23;9.40;;;1.00;71.30;;;;;;5067994;28;20393;-75
2021/01/16 01:57:59;;;;;;;22.53;10.53;;;1.10;71.40;;;;;;5058686;28;20785;-75
2021/01/16 02:00:25;;;;;;;22.17;10.23;;;1.00;71.00;;;;;;5044933;28;21008;-74
2021/01/16 02:02:57;;;;;;;18.90;9.33;;;1.00;71.10;;;;;;5061303;28;20452;-77
2021/01/16 02:05:22;;;;;;;18.40;9.27;;;1.00;71.10;;;;;;5044268;28;20412;-75
2021/01/16 02:07:48;;;;;;;21.83;11.57;;;1.10;71.10;;;;;;5036622;28;20419;-77
2021/01/16 02:10:23;;;;;;;16.80;9.93;;;1.00;70.90;;;;;;5057326;28;20528;-74
2021/01/16 02:12:54;;;;;;;17.23;9.20;;;1.00;71.00;;;;;;5043625;28;20185;-74
2021/01/16 02:15:30;;;;;;;20.13;9.07;;;1.00;71.10;;;;;;5062369;28;20413;-75
2021/01/16 02:18:02;;;;;;;20.10;9.07;;;1.00;71.20;;;;;;5056778;28;20418;-77
2021/01/16 02:20:35;;;;;;;17.37;8.13;;;1.00;71.30;;;;;;5034127;28;20444;-77
2021/01/16 02:23:07;;;;;;;17.50;8.80;;;1.10;71.40;;;;;;5017834;28;20460;-75
2021/01/16 02:25:41;;;;;;;13.50;8.47;;;1.10;71.40;;;;;;5036227;28;20824;-75
2021/01/16 02:28:09;;;;;;;12.63;7.90;;;1.10;71.40;;;;;;5047759;28;20419;-74
2021/01/16 02:30:38;;;;;;;15.53;8.67;;;1.20;71.50;;;;;;5058030;28;20410;-75
2021/01/16 02:33:06;;;;;;;17.33;8.90;;;1.20;71.10;;;;;;5048469;28;20420;-76
2021/01/16 02:35:39;;;;;;;18.00;9.10;;;1.20;71.20;;;;;;5057075;28;20446;-76
2021/01/16 02:38:27;;;;;;;16.67;10.07;;;1.20;71.40;;;;;;5056563;28;20796;-75
2021/01/16 02:40:59;;;;;;;16.97;9.50;;;1.20;71.30;;;;;;5056540;28;20423;-78
2021/01/16 02:43:34;;;;;;;20.33;10.13;;;1.10;71.20;;;;;;5055189;28;20463;-77
2021/01/16 02:46:25;;;;;;;23.57;8.80;;;1.20;71.40;;;;;;5054858;28;20446;-74
2021/01/16 02:49:10;;;;;;;17.67;9.50;;;1.10;71.40;;;;;;5053852;28;20420;-76
2021/01/16 02:51:46;;;;;;;14.23;8.50;;;1.20;71.50;;;;;;5053398;28;20515;-75
2021/01/16 02:54:12;;;;;;;18.17;9.70;;;1.20;71.70;;;;;;5053355;28;20834;-74
2021/01/16 02:56:39;;;;;;;18.70;8.10;;;1.20;72.40;;;;;;5052953;28;20416;-74
2021/01/16 02:59:05;;;;;;;14.40;8.60;;;1.10;71.60;;;;;;5054527;28;20781;-76
2021/01/16 03:01:35;;;;;;;18.57;8.70;;;1.10;71.80;;;;;;5054900;28;20469;-78
2021/01/16 03:04:00;;;;;;;15.40;8.27;;;1.20;72.10;;;;;;5019979;28;20537;-75
2021/01/16 03:06:26;;;;;;;14.53;9.23;;;1.20;71.90;;;;;;5053758;28;20869;-73
2021/01/16 03:08:54;;;;;;;14.70;8.80;;;1.10;71.90;;;;;;5018282;28;20166;-78
2021/01/16 03:11:20;;;;;;;19.23;9.60;;;1.10;71.80;;;;;;5052712;28;20396;-75
2021/01/16 03:13:48;;;;;;;16.07;7.90;;;1.10;72.00;;;;;;5053013;28;20489;-74
2021/01/16 03:16:38;;;;;;;14.67;7.90;;;1.10;71.90;;;;;;5034468;28;20906;-76
2021/01/16 03:19:06;;;;;;;22.10;10.00;;;1.10;72.00;;;;;;5053552;28;20440;-76
2021/01/16 03:21:37;;;;;;;18.47;8.43;;;1.10;71.90;;;;;;5053127;28;20411;-78
2021/01/16 03:24:03;;;;;;;19.00;8.53;;;1.10;71.90;;;;;;5053586;28;20448;-75
2021/01/16 03:26:29;;;;;;;19.50;8.10;;;1.10;71.50;;;;;;5053598;28;20454;-75
2021/01/16 03:28:55;;;;;;;12.40;7.67;;;1.10;71.30;;;;;;5052523;28;20820;-74
2021/01/16 03:31:20;;;;;;;18.37;8.43;;;1.10;71.00;;;;;;5052105;28;20212;-75
2021/01/16 03:33:46;;;;;;;16.20;9.17;;;1.10;71.20;;;;;;5052610;28;20846;-75
2021/01/16 03:36:11;;;;;;;16.80;9.53;;;1.10;71.20;;;;;;5052668;28;20165;-76
2021/01/16 03:38:37;;;;;;;16.63;8.90;;;1.20;71.30;;;;;;5051753;28;20190;-73
2021/01/16 03:41:03;;;;;;;11.73;7.20;;;1.20;71.10;;;;;;5053054;28;20173;-73
2021/01/16 03:43:28;;;;;;;18.10;8.23;;;1.20;71.10;;;;;;5033930;28;20212;-73
2021/01/16 03:45:54;;;;;;;21.90;8.30;;;1.20;70.90;;;;;;5054925;28;20172;-74
2021/01/16 03:48:20;;;;;;;17.50;8.57;;;1.20;71.00;;;;;;5039035;28;20243;-74
2021/01/16 03:50:45;;;;;;;17.00;9.23;;;1.20;70.80;;;;;;5056808;28;20162;-75
2021/01/16 03:53:11;;;;;;;15.27;8.63;;;1.20;70.80;;;;;;5056599;28;20182;-74
2021/01/16 03:55:36;;;;;;;16.77;6.77;;;1.20;70.60;;;;;;5038357;28;20200;-74
2021/01/16 03:58:02;;;;;;;15.70;8.40;;;1.20;70.40;;;;;;5057971;28;20177;-74
2021/01/16 04:00:28;;;;;;;15.83;8.03;;;1.20;70.30;;;;;;5057189;28;20220;-74
2021/01/16 04:02:53;;;;;;;18.40;8.33;;;1.20;70.30;;;;;;5056731;28;20194;-74
2021/01/16 04:05:19;;;;;;;18.40;8.30;;;1.20;70.30;;;;;;5058215;28;20212;-75
2021/01/16 04:07:49;;;;;;;15.87;7.90;;;1.20;70.00;;;;;;5058266;28;20168;-74
2021/01/16 04:10:15;;;;;;;14.23;7.37;;;1.20;70.30;;;;;;5038516;28;20166;-75
2021/01/16 04:12:41;;;;;;;24.63;9.60;;;1.20;70.00;;;;;;5039502;28;20477;-75
2021/01/16 04:15:07;;;;;;;13.57;7.60;;;1.20;69.90;;;;;;5055299;28;20169;-75
2021/01/16 04:17:33;;;;;;;16.03;8.07;;;1.20;69.40;;;;;;5037398;28;20639;-75
2021/01/16 04:19:58;;;;;;;13.40;7.13;;;1.20;69.40;;;;;;5054904;28;20471;-74
2021/01/16 04:22:24;;;;;;;14.87;8.23;;;1.20;69.30;;;;;;5057081;28;20217;-75
2021/01/16 04:24:49;;;;;;;14.97;6.73;;;1.20;69.10;;;;;;5038496;28;20198;-75
2021/01/16 04:27:15;;;;;;;12.40;6.77;;;1.20;69.00;;;;;;5056090;28;20197;-76
2021/01/16 04:29:41;;;;;;;14.03;7.27;;;1.20;68.90;;;;;;5037968;28;20264;-74
2021/01/16 04:32:06;;;;;;;12.23;7.00;;;1.20;68.90;;;;;;5056293;28;20300;-75
2021/01/16 04:34:32;;;;;;;14.10;7.10;;;1.20;68.60;;;;;;5038681;28;20169;-76
2021/01/16 04:36:58;;;;;;;15.50;8.07;;;1.20;68.50;;;;;;5056507;28;20184;-76
2021/01/16 04:39:23;;;;;;;15.37;7.43;;;1.20;68.30;;;;;;5055754;28;20169;-77
2021/01/16 04:41:52;;;;;;;16.33;7.73;;;1.20;68.00;;;;;;5055100;28;20237;-75
2021/01/16 04:44:21;;;;;;;17.90;7.63;;;1.20;67.90;;;;;;5055903;28;20217;-76
2021/01/16 04:46:49;;;;;;;18.53;7.43;;;1.20;67.90;;;;;;5036741;28;20412;-73
2021/01/16 04:49:17;;;;;;;14.80;7.40;;;1.20;68.00;;;;;;5055224;28;20454;-74
2021/01/16 04:51:47;;;;;;;15.57;7.80;;;1.20;67.90;;;;;;5055758;28;20523;-75
2021/01/16 04:54:15;;;;;;;15.40;7.90;;;1.20;67.60;;;;;;5055761;28;20459;-74
2021/01/16 04:56:41;;;;;;;16.50;8.60;;;1.20;67.70;;;;;;5055463;28;20465;-73
2021/01/16 04:59:07;;;;;;;16.93;6.80;;;1.20;67.80;;;;;;5054370;28;20415;-73
2021/01/16 05:01:33;;;;;;;17.30;7.73;;;1.20;67.80;;;;;;5037385;28;20420;-77
2021/01/16 05:03:59;;;;;;;17.37;8.10;;;1.20;67.80;;;;;;5054434;28;20232;-74
2021/01/16 05:06:27;;;;;;;14.53;7.67;;;1.20;67.70;;;;;;5037032;28;20653;-76
2021/01/16 05:08:57;;;;;;;8.97;6.17;;;1.20;67.40;;;;;;5037328;28;20646;-76
2021/01/16 05:11:26;;;;;;;12.43;6.27;;;1.20;67.30;;;;;;5053716;28;20419;-74
2021/01/16 05:14:06;;;;;;;13.10;6.73;;;1.20;67.40;;;;;;5037356;28;20419;-77
2021/01/16 05:16:43;;;;;;;18.47;7.20;;;1.30;67.50;;;;;;5054319;28;20422;-78
2021/01/16 05:19:15;;;;;;;10.50;5.90;;;1.30;67.40;;;;;;5055282;28;20913;-73
2021/01/16 05:21:42;;;;;;;15.77;6.57;;;1.30;67.20;;;;;;5054656;28;20518;-73
2021/01/16 05:24:08;;;;;;;13.53;6.90;;;1.30;67.10;;;;;;5054991;28;20468;-73
2021/01/16 05:27:03;;;;;;;13.27;7.33;;;1.30;67.10;;;;;;5055794;28;20496;-75
2021/01/16 05:29:31;;;;;;;17.10;7.27;;;1.30;67.00;;;;;;5047113;28;20451;-74
2021/01/16 05:31:59;;;;;;;10.47;6.07;;;1.30;66.80;;;;;;5056166;28;20432;-77
2021/01/16 05:34:26;;;;;;;17.30;7.10;;;1.40;66.80;;;;;;5054952;28;20428;-74
2021/01/16 05:36:53;;;;;;;12.20;7.30;;;1.40;66.80;;;;;;5055967;28;20420;-74
2021/01/16 05:39:20;;;;;;;16.80;7.40;;;1.40;66.80;;;;;;5055172;28;20420;-74
2021/01/16 05:41:46;;;;;;;18.70;10.27;;;1.40;66.90;;;;;;5053614;28;20462;-76
2021/01/16 05:44:13;;;;;;;17.10;8.43;;;1.40;67.10;;;;;;5058047;28;20455;-76
2021/01/16 05:46:44;;;;;;;15.33;8.20;;;1.40;67.40;;;;;;5022839;28;20404;-76
2021/01/16 05:49:15;;;;;;;21.67;9.13;;;1.40;67.50;;;;;;5056037;28;20424;-73
2021/01/16 05:51:43;;;;;;;27.17;9.60;;;1.40;67.70;;;;;;5036964;28;20475;-73
2021/01/16 05:54:11;;;;;;;17.87;8.20;;;1.40;68.00;;;;;;5055122;28;20769;-75
2021/01/16 05:56:39;;;;;;;27.07;8.93;;;1.40;68.00;;;;;;5021269;28;20461;-76
2021/01/16 05:59:16;;;;;;;16.33;8.43;;;1.40;68.30;;;;;;5055111;28;20440;-76
2021/01/16 06:01:45;;;;;;;13.90;8.97;;;1.40;68.50;;;;;;5053599;28;20454;-76
2021/01/16 06:04:18;;;;;;;20.93;10.87;;;1.40;68.60;;;;;;5056291;28;20443;-76
2021/01/16 06:06:43;;;;;;;19.60;8.10;;;1.50;68.70;;;;;;5054897;28;20958;-75
2021/01/16 06:09:19;;;;;;;16.60;7.50;;;1.50;68.50;;;;;;5054378;28;20408;-74
2021/01/16 06:11:48;;;;;;;19.73;9.23;;;1.50;68.00;;;;;;5054288;28;20443;-75
2021/01/16 06:14:15;;;;;;;21.63;8.53;;;1.40;67.60;;;;;;5054601;28;20874;-77
2021/01/16 06:16:53;;;;;;;18.57;8.90;;;1.40;67.60;;;;;;5036025;28;20503;-73
2021/01/16 06:19:24;;;;;;;22.80;9.80;;;1.40;67.70;;;;;;5052883;28;20412;-74
2021/01/16 06:21:51;;;;;;;22.53;8.90;;;1.40;67.80;;;;;;5036074;28;20444;-76
2021/01/16 06:24:22;;;;;;;21.10;8.23;;;1.40;67.90;;;;;;5054281;28;20440;-76
2021/01/16 06:26:55;;;;;;;20.40;8.63;;;1.50;68.10;;;;;;5054153;28;20488;-73
2021/01/16 06:29:34;;;;;;;25.57;9.10;;;1.40;67.90;;;;;;5035278;28;20416;-75
2021/01/16 06:32:08;;;;;;;23.20;9.13;;;1.40;68.00;;;;;;5054107;28;20519;-73
2021/01/16 06:34:39;;;;;;;21.50;9.30;;;1.40;68.10;;;;;;5053013;28;20420;-73
2021/01/16 06:37:15;;;;;;;15.73;8.80;;;1.40;68.00;;;;;;5036253;28;20435;-75
2021/01/16 06:39:47;;;;;;;15.90;7.73;;;1.40;68.10;;;;;;5036875;28;20419;-76
2021/01/16 06:42:24;;;;;;;15.77;8.27;;;1.50;68.20;;;;;;5052904;28;20451;-75
2021/01/16 06:45:02;;;;;;;14.70;8.00;;;1.40;68.00;;;;;;5054501;28;20452;-76
2021/01/16 06:47:28;;;;;;;15.57;8.67;;;1.50;67.80;;;;;;5055322;28;20442;-73
2021/01/16 06:50:01;;;;;;;15.00;8.47;;;1.50;67.90;;;;;;5053292;28;20412;-75
2021/01/16 06:52:35;;;;;;;14.50;8.77;;;1.50;67.80;;;;;;5053363;28;20794;-76
2021/01/16 06:55:05;;;;;;;18.13;8.83;;;1.50;67.50;;;;;;5053930;28;20511;-75
2021/01/16 06:57:32;;;;;;;13.67;7.70;;;1.50;67.40;;;;;;5040070;28;20468;-75
2021/01/16 07:00:06;;;;;;;17.10;8.03;;;1.50;67.30;;;;;;5044636;28;20420;-74
2021/01/16 07:02:34;;;;;;;25.03;10.53;;;1.50;67.20;;;;;;5052628;28;20479;-75
2021/01/16 07:05:23;;;;;;;19.00;9.10;;;1.50;67.00;;;;;;5050855;28;20468;-74
2021/01/16 07:07:51;;;;;;;14.50;9.23;;;1.50;66.80;;;;;;5013969;28;20921;-74
2021/01/16 07:10:22;;;;;;;20.13;8.90;;;1.50;67.00;;;;;;5039671;28;20952;-74
2021/01/16 07:12:50;;;;;;;12.43;7.10;;;1.50;66.90;;;;;;5053120;28;20976;-76
2021/01/16 07:15:17;;;;;;;16.83;9.00;;;1.50;67.00;;;;;;5038126;28;20569;-75
2021/01/16 07:17:44;;;;;;;14.37;8.97;;;1.50;67.30;;;;;;5042530;28;20428;-72
2021/01/16 07:20:11;;;;;;;20.30;9.70;;;1.50;67.20;;;;;;5036646;28;20503;-74
2021/01/16 07:22:41;;;;;;;20.20;10.33;;;1.50;67.30;;;;;;5059500;28;20938;-74
2021/01/16 07:25:08;;;;;;;29.13;10.50;;;1.50;67.20;;;;;;5059497;28;20462;-74
2021/01/16 07:27:35;;;;;;;22.93;10.00;;;1.50;67.40;;;;;;5063101;28;20413;-74
2021/01/16 07:30:04;;;;;;;21.07;9.07;;;1.50;67.50;;;;;;5060586;28;20896;-74
2021/01/16 07:32:41;;;;;;;17.40;9.60;;;1.50;67.40;;;;;;5059930;28;20531;-74
2021/01/16 07:35:13;;;;;;;17.10;8.80;;;1.50;67.20;;;;;;5059397;28;20419;-74
2021/01/16 07:37:41;;;;;;;17.77;9.57;;;1.50;67.10;;;;;;5058366;28;20396;-77
2021/01/16 07:40:14;;;;;;;19.40;9.00;;;1.50;66.70;;;;;;5055253;28;20424;-74
2021/01/16 07:42:48;;;;;;;18.90;8.77;;;1.60;66.90;;;;;;5058718;28;20443;-75
2021/01/16 07:45:22;;;;;;;21.23;9.50;;;1.60;66.80;;;;;;5057805;28;20972;-74
2021/01/16 07:47:51;;;;;;;18.43;8.77;;;1.60;66.60;;;;;;5058065;28;20541;-74
2021/01/16 07:50:31;;;;;;;16.50;9.70;;;1.60;66.80;;;;;;5058141;28;20419;-75
2021/01/16 07:53:05;;;;;;;24.17;10.53;;;1.60;66.90;;;;;;5055898;28;20531;-75
2021/01/16 07:55:36;;;;;;;18.27;9.93;;;1.70;67.20;;;;;;5052805;28;21042;-74
2021/01/16 07:58:23;;;;;;;16.67;9.50;;;1.70;67.40;;;;;;5043429;28;20415;-75
2021/01/16 08:01:15;;;;;;;18.83;9.77;;;1.70;67.40;;;;;;5046831;28;20492;-75
2021/01/16 08:04:19;;;;;;;17.90;9.13;;;1.70;67.20;;;;;;5022369;28;20984;-75
2021/01/16 08:07:04;;;;;;;25.20;11.53;;;1.80;67.30;;;;;;5027409;28;20411;-74
2021/01/16 08:09:48;;;;;;;20.20;9.90;;;1.80;66.90;;;;;;5049401;28;21011;-74
2021/01/16 08:12:16;;;;;;;19.10;10.80;;;1.80;66.30;;;;;;5032095;28;20427;-73
2021/01/16 08:14:42;;;;;;;18.83;9.80;;;1.80;65.40;;;;;;5049417;28;20404;-74
2021/01/16 08:17:28;;;;;;;27.27;11.40;;;1.80;65.20;;;;;;5048592;28;20536;-75
2021/01/16 08:19:59;;;;;;;17.90;9.73;;;1.80;65.20;;;;;;5054072;28;20415;-75
2021/01/16 08:22:41;;;;;;;18.10;8.70;;;1.80;65.00;;;;;;5042233;28;20523;-75
2021/01/16 08:25:10;;;;;;;14.07;8.30;;;1.90;64.80;;;;;;5036886;28;20530;-75
2021/01/16 08:27:41;;;;;;;13.70;8.40;;;1.90;64.60;;;;;;5038258;28;20404;-76
2021/01/16 08:30:08;;;;;;;12.17;7.33;;;1.90;63.90;;;;;;5052909;28;20465;-75
2021/01/16 08:32:52;;;;;;;22.70;10.17;;;1.90;63.70;;;;;;5054818;28;21088;-75
2021/01/16 08:35:25;;;;;;;20.60;10.90;;;1.90;63.60;;;;;;5054544;28;20415;-74
2021/01/16 08:37:51;;;;;;;23.87;11.53;;;2.00;64.00;;;;;;5055352;28;20420;-76
2021/01/16 08:40:37;;;;;;;17.37;10.93;;;2.00;64.30;;;;;;5036122;28;20496;-76
2021/01/16 08:43:03;;;;;;;21.80;9.67;;;2.00;64.30;;;;;;5041167;28;20482;-75
2021/01/16 08:45:29;;;;;;;23.70;10.27;;;2.00;64.60;;;;;;5055113;28;20424;-75
2021/01/16 08:47:57;;;;;;;30.03;9.13;;;2.00;64.80;;;;;;5054354;28;20170;-75
2021/01/16 08:50:28;;;;;;;17.60;8.60;;;2.10;64.70;;;;;;5053535;28;20170;-75
2021/01/16 08:52:54;;;;;;;20.00;9.87;;;2.10;64.50;;;;;;5053819;28;20844;-75
2021/01/16 08:55:26;;;;;;;17.93;9.33;;;2.10;64.80;;;;;;5054959;28;20439;-75
2021/01/16 08:58:06;;;;;;;17.53;10.57;;;2.10;64.70;;;;;;5053771;28;20197;-75
2021/01/16 09:00:33;;;;;;;24.33;11.30;;;2.10;65.10;;;;;;5001218;28;20421;-77
2021/01/16 09:03:16;;;;;;;20.53;10.83;;;2.10;65.40;;;;;;5018840;28;20436;-76
2021/01/16 09:05:47;;;;;;;23.23;10.80;;;2.10;65.30;;;;;;5035266;28;20724;-75
2021/01/16 09:08:23;;;;;;;17.53;10.17;;;2.20;66.00;;;;;;5040889;28;20416;-75
2021/01/16 09:10:50;;;;;;;20.67;10.30;;;2.10;65.10;;;;;;5056600;28;20404;-76
2021/01/16 09:13:26;;;;;;;17.40;10.53;;;2.10;65.40;;;;;;5058060;28;20416;-77
2021/01/16 09:15:53;;;;;;;20.63;10.10;;;2.10;65.80;;;;;;5057412;28;20399;-75
2021/01/16 09:18:19;;;;;;;22.40;11.60;;;2.10;65.90;;;;;;5058221;28;20425;-75
2021/01/16 09:20:51;;;;;;;27.77;10.47;;;2.20;66.00;;;;;;5033504;28;20424;-75
2021/01/16 09:23:18;;;;;;;23.87;11.10;;;2.10;66.00;;;;;;5059935;28;20427;-77
2021/01/16 09:26:02;;;;;;;19.60;10.33;;;2.10;66.20;;;;;;5064859;28;20515;-75
2021/01/16 09:28:48;;;;;;;24.10;10.60;;;2.10;66.10;;;;;;5056979;28;20638;-77
2021/01/16 09:31:42;;;;;;;19.47;10.00;;;2.10;66.10;;;;;;5058960;28;20412;-76
2021/01/16 09:34:20;;;;;;;21.90;11.10;;;2.10;66.20;;;;;;5042317;28;20424;-77
2021/01/16 09:36:56;;;;;;;19.83;10.13;;;2.10;66.20;;;;;;5059335;28;20412;-76
2021/01/16 09:39:33;;;;;;;20.70;11.20;;;2.10;66.60;;;;;;5046459;28;20419;-75
2021/01/16 09:41:59;;;;;;;22.53;11.67;;;2.10;66.80;;;;;;5056382;28;20469;-75
2021/01/16 09:44:52;;;;;;;20.37;11.43;;;2.20;66.80;;;;;;5073066;28;20448;-74
2021/01/16 09:47:27;;;;;;;18.80;9.27;;;2.20;66.30;;;;;;5071313;28;20525;-77
2021/01/16 09:50:06;;;;;;;24.93;10.17;;;2.20;66.30;;;;;;5073453;28;20419;-75
2021/01/16 09:52:32;;;;;;;21.20;10.77;;;2.30;65.90;;;;;;5073585;28;20434;-74
2021/01/16 09:54:59;;;;;;;24.33;11.67;;;2.30;65.70;;;;;;5072069;28;20393;-75
2021/01/16 09:57:40;;;;;;;22.50;12.30;;;2.30;66.10;;;;;;5074255;28;20435;-77
2021/01/16 10:00:12;;;;;;;20.47;10.47;;;2.30;66.10;;;;;;5072719;28;20480;-76
2021/01/16 10:02:45;;;;;;;21.90;11.23;;;2.30;66.30;;;;;;5056233;28;20519;-75
2021/01/16 10:05:35;;;;;;;18.40;10.47;;;2.30;66.40;;;;;;5022588;28;20479;-77
2021/01/16 10:08:02;;;;;;;20.97;11.23;;;2.30;66.10;;;;;;5037599;28;20838;-76
2021/01/16 10:10:40;;;;;;;17.20;10.80;;;2.30;66.00;;;;;;5073557;28;20400;-75
2021/01/16 10:13:09;;;;;;;23.00;9.77;;;2.30;65.80;;;;;;5050342;28;20424;-75
2021/01/16 10:15:47;;;;;;;25.17;11.97;;;2.30;65.90;;;;;;5066402;28;20408;-76
2021/01/16 10:18:17;;;;;;;25.33;10.80;;;2.30;65.90;;;;;;5063321;28;20474;-76
2021/01/16 10:20:43;;;;;;;19.87;11.50;;;2.30;65.70;;;;;;5060459;28;20446;-77
2021/01/16 10:23:09;;;;;;;29.80;15.10;;;2.30;65.60;;;;;;5037564;28;20949;-77
2021/01/16 10:25:42;;;;;;;27.70;13.70;;;2.30;65.60;;;;;;5055312;28;20515;-76
2021/01/16 10:28:24;;;;;;;19.87;11.07;;;2.30;65.70;;;;;;5055113;28;20166;-76
2021/01/16 10:31:03;;;;;;;23.80;11.73;;;2.30;65.20;;;;;;5035558;28;20902;-73
2021/01/16 10:33:43;;;;;;;27.90;12.20;;;2.30;65.50;;;;;;5046450;28;20548;-75
2021/01/16 10:36:14;;;;;;;25.17;11.97;;;2.30;65.70;;;;;;5052109;28;20448;-75
2021/01/16 10:38:48;;;;;;;26.40;12.47;;;2.30;65.50;;;;;;5052654;28;20434;-75
2021/01/16 10:41:18;;;;;;;22.13;13.60;;;2.30;65.70;;;;;;5054035;28;20534;-77
2021/01/16 10:43:44;;;;;;;24.97;12.03;;;2.30;65.80;;;;;;5054060;28;20458;-75
2021/01/16 10:46:12;;;;;;;23.30;10.97;;;2.30;65.70;;;;;;5034871;28;20408;-77
2021/01/16 10:48:39;;;;;;;21.80;11.80;;;2.30;65.70;;;;;;5034287;28;20425;-78
2021/01/16 10:51:06;;;;;;;25.47;12.90;;;2.30;65.90;;;;;;5035734;28;20993;-77
2021/01/16 10:53:40;;;;;;;19.80;12.07;;;2.30;66.40;;;;;;5052958;28;20432;-77
2021/01/16 10:56:24;;;;;;;19.80;11.10;;;2.30;66.40;;;;;;5034119;28;20439;-76
2021/01/16 10:58:50;;;;;;;21.93;11.37;;;2.40;66.20;;;;;;5034189;28;20457;-75
2021/01/16 11:01:43;;;;;;;32.57;12.67;;;2.40;67.30;;;;;;5050666;28;20440;-77
2021/01/16 11:04:19;;;;;;;20.43;9.57;;;2.40;66.60;;;;;;5052253;28;20448;-75
2021/01/16 11:06:48;;;;;;;20.97;11.50;;;2.40;66.40;;;;;;5053528;28;20416;-76
2021/01/16 11:09:34;;;;;;;22.63;10.77;;;2.50;66.20;;;;;;5034168;28;20909;-76
2021/01/16 11:12:07;;;;;;;24.40;11.93;;;2.50;66.00;;;;;;5034934;28;20435;-76
2021/01/16 11:14:37;;;;;;;18.50;10.17;;;2.60;65.40;;;;;;5041264;28;20419;-77
2021/01/16 11:17:04;;;;;;;21.37;10.50;;;2.60;65.30;;;;;;5053827;28;20423;-78
2021/01/16 11:19:38;;;;;;;19.63;11.40;;;2.60;64.30;;;;;;5052589;28;20597;-77
2021/01/16 11:22:19;;;;;;;19.87;10.57;;;2.70;64.40;;;;;;5059087;28;20420;-76
2021/01/16 11:24:49;;;;;;;17.73;11.37;;;2.70;64.40;;;;;;5057302;28;20455;-76
2021/01/16 11:27:17;;;;;;;22.57;11.00;;;2.70;63.70;;;;;;5054203;28;20905;-75
2021/01/16 11:29:44;;;;;;;21.63;11.73;;;2.80;64.20;;;;;;5053633;28;20440;-77
2021/01/16 11:32:21;;;;;;;21.30;11.37;;;2.80;64.00;;;;;;5053939;28;20448;-76
2021/01/16 11:35:12;;;;;;;22.33;11.60;;;2.80;63.70;;;;;;5053848;28;20477;-75
2021/01/16 11:37:55;;;;;;;20.63;10.20;;;2.90;63.50;;;;;;5052330;28;20833;-76
2021/01/16 11:40:32;;;;;;;14.93;9.43;;;2.90;62.60;;;;;;5054171;28;20436;-76
2021/01/16 11:43:06;;;;;;;15.03;8.83;;;2.90;61.40;;;;;;5053045;28;20444;-78
2021/01/16 11:45:32;;;;;;;23.90;9.70;;;3.00;60.40;;;;;;5054178;28;20431;-77
2021/01/16 11:47:59;;;;;;;16.90;9.30;;;2.90;59.50;;;;;;5036932;28;20843;-76
2021/01/16 11:50:32;;;;;;;18.63;9.20;;;2.90;59.20;;;;;;5051494;28;20170;-77
2021/01/16 11:53:09;;;;;;;22.97;10.20;;;2.90;59.50;;;;;;5017974;28;20436;-77
2021/01/16 11:55:35;;;;;;;16.80;9.63;;;2.90;59.40;;;;;;5053281;28;20536;-77
2021/01/16 11:58:02;;;;;;;13.53;8.27;;;2.90;59.40;;;;;;5035299;28;20556;-75
2021/01/16 12:00:28;;;;;;;14.57;8.40;;;3.00;59.00;;;;;;5034469;28;20423;-76
2021/01/16 12:02:55;;;;;;;16.67;9.37;;;3.00;58.80;;;;;;5052053;28;20530;-76
2021/01/16 12:05:22;;;;;;;17.60;8.70;;;3.00;59.00;;;;;;5055442;28;20456;-77
2021/01/16 12:07:56;;;;;;;17.87;9.13;;;3.00;58.60;;;;;;5038940;28;20493;-78
2021/01/16 12:10:26;;;;;;;18.13;8.83;;;3.00;59.00;;;;;;5058467;28;20426;-76
2021/01/16 12:12:53;;;;;;;18.17;9.60;;;3.00;58.80;;;;;;5040902;28;20450;-76
2021/01/16 12:15:21;;;;;;;15.63;7.90;;;3.10;58.80;;;;;;5040892;28;20416;-78
2021/01/16 12:17:49;;;;;;;20.13;9.00;;;3.10;58.80;;;;;;5041924;28;20989;-79
2021/01/16 12:20:16;;;;;;;20.80;9.80;;;3.10;58.50;;;;;;5038887;28;20428;-78
2021/01/16 12:22:43;;;;;;;17.57;9.43;;;3.10;58.30;;;;;;5056640;28;20497;-77
2021/01/16 12:25:11;;;;;;;15.40;8.07;;;3.20;58.50;;;;;;5055290;28;20455;-79
2021/01/16 12:27:51;;;;;;;15.87;8.53;;;3.20;58.30;;;;;;5055750;28;20411;-78
2021/01/16 12:30:18;;;;;;;15.23;8.30;;;3.20;57.90;;;;;;5057426;28;20444;-76
2021/01/16 12:32:44;;;;;;;16.83;7.73;;;3.20;58.00;;;;;;5057169;28;20906;-76
2021/01/16 12:35:11;;;;;;;16.77;7.17;;;3.20;57.90;;;;;;5039510;28;20762;-77
2021/01/16 12:37:38;;;;;;;15.53;8.73;;;3.20;57.80;;;;;;5056896;28;20420;-76
2021/01/16 12:40:15;;;;;;;14.70;7.90;;;3.20;57.90;;;;;;5058571;28;20447;-74
2021/01/16 12:42:41;;;;;;;17.10;7.67;;;3.30;57.60;;;;;;5044041;28;20881;-77
2021/01/16 12:45:11;;;;;;;13.30;7.67;;;3.30;57.50;;;;;;5055021;28;20459;-76
2021/01/16 12:47:38;;;;;;;20.53;8.70;;;3.30;57.60;;;;;;5044185;28;20508;-79
2021/01/16 12:50:05;;;;;;;27.87;8.73;;;3.40;57.50;;;;;;5041618;28;20415;-76
2021/01/16 12:52:32;;;;;;;22.50;8.20;;;3.30;56.50;;;;;;5060501;28;20420;-75
2021/01/16 12:55:06;;;;;;;14.57;7.80;;;3.30;56.50;;;;;;5060444;28;20507;-76
2021/01/16 12:57:37;;;;;;;18.07;8.23;;;3.40;56.40;;;;;;5058630;28;20460;-76
2021/01/16 13:00:31;;;;;;;16.90;6.93;;;3.40;56.30;;;;;;5058249;28;20427;-76